Time;durP1;ratioP1;P1;durP2;ratioP2;P2;SDS_P1;SDS_P2;PMS_P1;PMS_P2;Temp;Humidity;BMP_temperature;BMP_pressure;BME280_temperature;BME280_humidity;BME280_pressure;Samples;Min_cycle;Max_cycle;Signal;HPM_P1;HPM_P2
2021/06/20 00:00:10;;;;;;;6.82;3.15;;;;;;;23.04;53.42;100646.41;5029418;28;20133;-64
2021/06/20 00:02:38;;;;;;;5.65;3.15;;;;;;;22.98;53.81;100649.31;5012075;28;20100;-65
2021/06/20 00:05:11;;;;;;;5.90;3.25;;;;;;;22.85;54.15;100648.00;5031180;28;20410;-65
2021/06/20 00:07:39;;;;;;;8.30;3.22;;;;;;;22.66;54.81;100641.50;5030422;28;20665;-64
2021/06/20 00:10:08;;;;;;;6.97;3.42;;;;;;;22.65;55.24;100653.22;5030463;28;20092;-64
2021/06/20 00:12:36;;;;;;;6.88;3.40;;;;;;;22.62;55.47;100656.91;5033124;28;20105;-65
2021/06/20 00:15:06;;;;;;;5.57;3.50;;;;;;;22.76;55.41;100647.50;5030464;28;20042;-64
2021/06/20 00:17:34;;;;;;;5.75;3.78;;;;;;;22.77;55.49;100644.75;5049854;28;20526;-64
2021/06/20 00:20:02;;;;;;;4.88;3.50;;;;;;;22.68;55.61;100639.66;5050338;28;20108;-65
2021/06/20 00:22:31;;;;;;;7.43;3.80;;;;;;;22.59;55.85;100648.03;5050304;28;20454;-65
2021/06/20 00:24:58;;;;;;;8.27;3.33;;;;;;;22.59;55.49;100661.50;5049935;28;20548;-64
2021/06/20 00:27:26;;;;;;;6.10;3.40;;;;;;;22.47;56.15;100659.25;5049963;28;20069;-65
2021/06/20 00:29:54;;;;;;;6.00;3.63;;;;;;;22.55;56.32;100659.88;5049458;28;20041;-64
2021/06/20 00:32:22;;;;;;;8.90;3.58;;;;;;;22.64;56.35;100654.16;5049015;28;20459;-64
2021/06/20 00:34:50;;;;;;;5.72;3.50;;;;;;;22.69;55.96;100657.56;5049914;28;20037;-64
2021/06/20 00:37:18;;;;;;;6.60;3.45;;;;;;;22.68;55.26;100655.81;5049232;28;20115;-65
2021/06/20 00:39:47;;;;;;;6.30;3.20;;;;;;;22.64;54.67;100654.16;5032193;28;20041;-65
2021/06/20 00:42:15;;;;;;;4.97;3.40;;;;;;;22.67;54.38;100648.66;5049799;28;20076;-65
2021/06/20 00:44:46;;;;;;;6.38;3.65;;;;;;;22.71;53.96;100646.75;5049484;28;20039;-64
2021/06/20 00:47:13;;;;;;;5.15;3.10;;;;;;;22.68;53.82;100650.41;5049418;28;20484;-65
2021/06/20 00:49:41;;;;;;;5.32;3.22;;;;;;;22.58;54.15;100643.59;5049249;28;20515;-65
2021/06/20 00:52:08;;;;;;;5.57;3.47;;;;;;;22.34;55.08;100641.78;5048914;28;20044;-65
2021/06/20 00:54:36;;;;;;;8.40;3.80;;;;;;;22.26;56.01;100642.91;5049970;28;20047;-64
2021/06/20 00:57:07;;;;;;;5.85;3.85;;;;;;;22.35;56.49;100643.53;5049789;28;20086;-64
2021/06/20 00:59:35;;;;;;;6.05;3.50;;;;;;;22.33;56.79;100640.00;5029541;28;20132;-65
2021/06/20 01:02:02;;;;;;;9.20;4.03;;;;;;;22.16;57.24;100636.09;5029886;28;20037;-64
2021/06/20 01:04:29;;;;;;;6.25;3.80;;;;;;;22.26;57.31;100642.03;5036098;28;20040;-64
2021/06/20 01:06:57;;;;;;;7.95;3.85;;;;;;;22.37;57.32;100639.00;5048932;28;20045;-65
2021/06/20 01:09:25;;;;;;;6.40;3.97;;;;;;;22.45;57.09;100631.53;5047545;28;20400;-65
2021/06/20 01:11:53;;;;;;;6.45;3.95;;;;;;;22.44;56.62;100637.84;5036631;28;20038;-64
2021/06/20 01:14:22;;;;;;;5.07;3.45;;;;;;;22.47;56.28;100637.72;5021947;28;20130;-64
2021/06/20 01:16:51;;;;;;;8.38;3.72;;;;;;;22.31;56.60;100629.31;5033826;28;20156;-63
2021/06/20 01:19:20;;;;;;;4.95;3.40;;;;;;;22.17;57.06;100631.63;5031429;28;20037;-64
2021/06/20 01:21:48;;;;;;;6.35;3.58;;;;;;;22.08;57.47;100635.47;5028736;28;20405;-65
2021/06/20 01:24:17;;;;;;;5.50;3.55;;;;;;;22.09;57.90;100629.19;5028931;28;20061;-64
2021/06/20 01:26:44;;;;;;;7.97;3.80;;;;;;;22.10;57.77;100636.31;5029072;28;20034;-65
2021/06/20 01:29:16;;;;;;;5.88;3.72;;;;;;;22.13;58.24;100635.31;5029279;28;20524;-64
2021/06/20 01:31:51;;;;;;;6.50;3.75;;;;;;;22.14;58.34;100631.69;5029125;28;20039;-65
2021/06/20 01:34:19;;;;;;;9.05;4.40;;;;;;;22.12;58.57;100634.44;5028765;28;20047;-65
2021/06/20 01:36:46;;;;;;;7.05;4.22;;;;;;;22.10;58.69;100641.69;5029220;28;20520;-64
2021/06/20 01:39:13;;;;;;;6.88;4.32;;;;;;;22.05;58.79;100640.09;5028310;28;20129;-65
2021/06/20 01:41:43;;;;;;;6.80;3.85;;;;;;;21.91;59.27;100640.53;5028733;28;20037;-65
2021/06/20 01:44:10;;;;;;;5.25;3.78;;;;;;;21.92;59.31;100638.72;5028496;28;20467;-64
2021/06/20 01:46:38;;;;;;;6.55;3.70;;;;;;;21.86;59.00;100629.91;5028800;28;20041;-65
2021/06/20 01:49:07;;;;;;;8.27;4.13;;;;;;;21.80;59.12;100634.59;5028605;28;20505;-64
2021/06/20 01:51:35;;;;;;;8.10;4.18;;;;;;;21.78;59.44;100640.03;5029188;28;20034;-64
2021/06/20 01:54:02;;;;;;;5.88;3.90;;;;;;;21.78;59.73;100639.16;5028018;28;20042;-64
2021/06/20 01:56:29;;;;;;;7.68;4.47;;;;;;;21.90;59.15;100643.25;5028419;28;20053;-64
2021/06/20 01:58:58;;;;;;;7.18;4.00;;;;;;;22.02;58.68;100638.38;5028639;28;20112;-65
2021/06/20 02:01:26;;;;;;;5.90;3.95;;;;;;;22.10;58.39;100630.06;5029185;28;20069;-64
2021/06/20 02:03:53;;;;;;;9.75;4.78;;;;;;;22.08;58.71;100640.84;5028328;28;20124;-65
2021/06/20 02:06:20;;;;;;;8.07;4.78;;;;;;;21.96;59.12;100638.59;5029112;28;20060;-63
2021/06/20 02:08:48;;;;;;;5.05;3.78;;;;;;;21.91;59.67;100645.91;5027755;28;20129;-65
2021/06/20 02:11:15;;;;;;;8.63;4.40;;;;;;;21.91;59.77;100639.63;5029048;28;20119;-65
2021/06/20 02:13:42;;;;;;;6.30;4.40;;;;;;;21.85;60.10;100646.09;5028685;28;20129;-65
2021/06/20 02:16:11;;;;;;;7.57;4.68;;;;;;;21.91;60.41;100651.28;5028408;28;20073;-65
2021/06/20 02:18:39;;;;;;;9.07;4.55;;;;;;;21.81;60.71;100647.09;5028850;28;20037;-64
2021/06/20 02:21:07;;;;;;;11.38;5.45;;;;;;;21.79;61.20;100649.84;5028811;28;20120;-64
2021/06/20 02:23:34;;;;;;;6.28;4.32;;;;;;;21.89;60.65;100647.75;5028373;28;20564;-65
2021/06/20 02:26:02;;;;;;;6.30;4.10;;;;;;;21.96;60.21;100651.16;5027918;28;20045;-65
2021/06/20 02:28:30;;;;;;;6.85;4.43;;;;;;;21.97;59.93;100655.59;5028815;28;20179;-65
2021/06/20 02:30:57;;;;;;;9.27;4.88;;;;;;;21.87;60.08;100646.91;5028388;28;20053;-65
2021/06/20 02:33:26;;;;;;;6.80;4.47;;;;;;;21.84;60.10;100649.72;5028658;28;20141;-64
2021/06/20 02:35:54;;;;;;;7.97;4.78;;;;;;;21.80;60.39;100648.91;5028358;28;20112;-65
2021/06/20 02:38:21;;;;;;;7.25;4.70;;;;;;;21.68;60.76;100653.81;5028404;28;20041;-64
2021/06/20 02:40:49;;;;;;;8.20;4.82;;;;;;;21.60;61.50;100659.41;5028494;28;20051;-65
2021/06/20 02:43:16;;;;;;;10.27;4.82;;;;;;;21.63;62.27;100656.66;5028697;28;20060;-65
2021/06/20 02:45:43;;;;;;;8.75;4.90;;;;;;;21.70;62.27;100654.66;5028391;28;20037;-65
2021/06/20 02:48:11;;;;;;;6.50;4.57;;;;;;;21.74;62.11;100656.28;5028044;28;20156;-64
2021/06/20 02:50:40;;;;;;;8.43;4.68;;;;;;;21.71;62.21;100657.28;5028360;28;20065;-65
2021/06/20 02:53:08;;;;;;;8.75;4.97;;;;;;;21.65;62.48;100676.28;5047996;28;20095;-64
2021/06/20 02:55:36;;;;;;;9.57;5.45;;;;;;;21.59;62.80;100684.56;5049339;28;20128;-64
2021/06/20 02:58:03;;;;;;;9.90;5.68;;;;;;;21.56;63.17;100687.31;5051151;28;20500;-65
2021/06/20 03:00:31;;;;;;;8.18;5.82;;;;;;;21.56;63.82;100683.75;5051566;28;20033;-65
2021/06/20 03:02:58;;;;;;;6.97;4.95;;;;;;;21.63;63.14;100683.50;5051352;28;20091;-65
2021/06/20 03:05:26;;;;;;;11.43;5.95;;;;;;;21.68;62.40;100675.31;5051561;28;20111;-65
2021/06/20 03:07:55;;;;;;;6.90;4.40;;;;;;;21.72;61.67;100682.34;5051368;28;20036;-64
2021/06/20 03:10:22;;;;;;;6.07;3.97;;;;;;;21.72;61.15;100679.66;5051548;28;20128;-64
2021/06/20 03:12:50;;;;;;;7.82;4.60;;;;;;;21.71;60.98;100676.09;5051262;28;20159;-64
2021/06/20 03:15:17;;;;;;;7.80;4.50;;;;;;;21.72;61.51;100674.28;5051097;28;20041;-64
2021/06/20 03:17:45;;;;;;;6.90;4.50;;;;;;;21.81;61.83;100677.56;5051046;28;20123;-64
2021/06/20 03:20:13;;;;;;;8.85;5.03;;;;;;;21.89;62.24;100685.38;5051214;28;20047;-65
2021/06/20 03:22:41;;;;;;;9.00;4.93;;;;;;;21.86;63.19;100696.22;5051568;28;20128;-65
2021/06/20 03:25:11;;;;;;;10.15;4.93;;;;;;;21.79;63.77;100690.16;5051419;28;20141;-64
2021/06/20 03:27:38;;;;;;;10.55;5.43;;;;;;;21.93;63.79;100694.22;5051370;28;20124;-65
2021/06/20 03:30:08;;;;;;;7.18;4.70;;;;;;;22.06;63.50;100695.59;5031514;28;20064;-64
2021/06/20 03:32:35;;;;;;;9.63;4.40;;;;;;;22.22;62.80;100688.81;5051238;28;20117;-64
2021/06/20 03:35:03;;;;;;;9.27;4.22;;;;;;;22.40;61.95;100687.28;5050641;28;20437;-65
2021/06/20 03:37:31;;;;;;;6.28;4.38;;;;;;;22.54;61.73;100690.41;5051159;28;20132;-65
2021/06/20 03:39:58;;;;;;;10.07;4.65;;;;;;;22.63;62.05;100685.59;5050871;28;20524;-64
2021/06/20 03:42:27;;;;;;;6.78;4.20;;;;;;;22.73;62.22;100688.84;5050572;28;20037;-65
2021/06/20 03:44:55;;;;;;;7.28;4.10;;;;;;;22.88;61.92;100692.81;5050993;28;20396;-64
2021/06/20 03:47:23;;;;;;;8.98;4.05;;;;;;;23.00;61.79;100693.25;5050699;28;20128;-64
2021/06/20 03:49:50;;;;;;;5.65;3.55;;;;;;;23.20;61.35;100697.00;5050766;28;20049;-65
2021/06/20 03:52:18;;;;;;;10.93;4.03;;;;;;;23.39;61.07;100695.38;5050657;28;20067;-65
2021/06/20 03:54:50;;;;;;;8.27;4.50;;;;;;;23.52;61.10;100698.50;5050392;28;20040;-65
2021/06/20 03:57:18;;;;;;;8.68;4.10;;;;;;;23.61;61.01;100699.03;5050152;28;20056;-66
2021/06/20 03:59:48;;;;;;;6.70;3.65;;;;;;;23.80;60.66;100705.47;5050760;28;20049;-65
2021/06/20 04:02:16;;;;;;;9.52;3.60;;;;;;;24.01;60.16;100700.16;5049866;28;20052;-65
2021/06/20 04:04:44;;;;;;;5.53;3.30;;;;;;;24.26;59.52;100697.34;5050583;28;20040;-65
2021/06/20 04:07:12;;;;;;;5.50;3.90;;;;;;;24.39;59.53;100690.50;5048967;28;20116;-65
2021/06/20 04:09:40;;;;;;;7.55;3.40;;;;;;;24.56;59.53;100696.91;5049597;28;20665;-65
2021/06/20 04:12:11;;;;;;;5.97;3.47;;;;;;;24.71;59.12;100699.88;5050719;28;20036;-65
2021/06/20 04:14:38;;;;;;;8.60;4.20;;;;;;;24.95;58.67;100707.81;5050045;28;20033;-65
2021/06/20 04:17:09;;;;;;;5.65;3.67;;;;;;;25.18;58.29;100714.03;5050047;28;20052;-65
2021/06/20 04:19:36;;;;;;;6.30;3.45;;;;;;;25.39;58.15;100713.94;5050387;28;20041;-65
2021/06/20 04:22:04;;;;;;;8.07;3.40;;;;;;;25.61;57.79;100719.22;5049354;28;20053;-65
2021/06/20 04:24:32;;;;;;;4.10;3.22;;;;;;;25.77;57.42;100712.16;5049765;28;20128;-65
2021/06/20 04:27:00;;;;;;;4.63;3.05;;;;;;;25.90;56.83;100712.44;5032449;28;20060;-65
2021/06/20 04:29:27;;;;;;;5.63;3.05;;;;;;;26.11;56.32;100711.38;5049656;28;20049;-65
2021/06/20 04:31:55;;;;;;;4.38;3.15;;;;;;;26.35;56.18;100719.25;5049355;28;20429;-65
2021/06/20 04:34:24;;;;;;;4.43;3.20;;;;;;;26.57;55.58;100728.94;5049115;28;20482;-65
2021/06/20 04:36:52;;;;;;;5.90;3.40;;;;;;;26.82;55.02;100731.25;5049826;28;20413;-65
2021/06/20 04:39:19;;;;;;;5.35;3.15;;;;;;;27.07;54.78;100733.56;5050000;28;20060;-65
2021/06/20 04:41:47;;;;;;;8.75;3.38;;;;;;;27.34;54.62;100731.22;5049558;28;20040;-65
2021/06/20 04:47:08;;;;;;;5.57;3.17;;;;;;;27.93;53.24;100748.75;5001635;28;20564;-65
2021/06/20 04:49:37;;;;;;;6.20;2.88;;;;;;;28.28;52.62;100744.06;5029336;28;20038;-65
2021/06/20 04:52:06;;;;;;;5.43;2.85;;;;;;;28.55;51.95;100746.03;5029825;28;20046;-65
2021/06/20 04:54:35;;;;;;;4.80;2.85;;;;;;;28.74;51.24;100742.22;5028780;28;20120;-66
2021/06/20 04:57:07;;;;;;;5.30;2.80;;;;;;;29.03;50.40;100748.63;5022831;28;20064;-66
2021/06/20 04:59:35;;;;;;;5.30;2.42;;;;;;;29.25;49.71;100744.50;5037532;28;20060;-65
2021/06/20 05:02:03;;;;;;;4.93;2.40;;;;;;;29.36;49.22;100743.88;5027145;28;20045;-66
2021/06/20 05:04:30;;;;;;;6.03;2.83;;;;;;;29.72;48.11;100737.94;5027662;28;20492;-66
2021/06/20 05:06:59;;;;;;;4.72;2.88;;;;;;;29.89;47.12;100742.28;5029129;28;20126;-66
2021/06/20 05:09:27;;;;;;;5.50;3.10;;;;;;;29.94;46.92;100740.16;5040213;28;20049;-65
2021/06/20 05:11:54;;;;;;;6.65;2.60;;;;;;;30.28;46.37;100741.53;5046746;28;20044;-65
2021/06/20 05:14:23;;;;;;;8.25;2.95;;;;;;;30.57;45.71;100739.63;5045932;28;20047;-65
2021/06/20 05:16:50;;;;;;;6.13;2.60;;;;;;;30.80;45.27;100731.63;5048886;28;20047;-65
2021/06/20 05:19:18;;;;;;;5.80;2.45;;;;;;;30.97;44.89;100741.38;5047257;28;20072;-66
2021/06/20 05:21:45;;;;;;;3.58;2.30;;;;;;;31.23;44.32;100725.94;5048229;28;20041;-65
2021/06/20 05:24:14;;;;;;;6.15;2.97;;;;;;;31.43;43.95;100728.13;5048437;28;20091;-66
2021/06/20 05:26:41;;;;;;;7.03;3.05;;;;;;;31.34;43.83;100731.50;5048470;28;20120;-66
2021/06/20 05:29:09;;;;;;;5.88;2.55;;;;;;;31.45;43.73;100734.31;5049440;28;20508;-65
2021/06/20 05:31:37;;;;;;;5.00;2.25;;;;;;;31.74;43.05;100736.84;5029611;28;20065;-65
2021/06/20 05:34:05;;;;;;;5.82;2.22;;;;;;;31.91;42.89;100739.19;5028116;28;20059;-66
2021/06/20 05:36:32;;;;;;;5.03;2.00;;;;;;;32.16;41.97;100738.31;5028969;28;20046;-65
2021/06/20 05:38:59;;;;;;;3.28;2.00;;;;;;;32.32;41.44;100739.75;5028881;28;20396;-65
2021/06/20 05:41:28;;;;;;;4.80;2.45;;;;;;;32.43;40.75;100737.06;5028428;28;20128;-65
2021/06/20 05:43:56;;;;;;;5.05;2.22;;;;;;;32.47;40.27;100731.38;5024537;28;20077;-65
2021/06/20 05:46:25;;;;;;;6.68;2.25;;;;;;;32.64;39.85;100730.94;5025565;28;20501;-65
2021/06/20 05:48:52;;;;;;;3.70;2.10;;;;;;;32.78;39.75;100726.19;5026968;28;20030;-66
2021/06/20 05:51:20;;;;;;;4.22;2.38;;;;;;;33.00;39.18;100725.41;5023743;28;20954;-65
2021/06/20 05:53:48;;;;;;;7.00;2.22;;;;;;;33.14;39.20;100727.94;5023788;28;20042;-66
2021/06/20 05:56:15;;;;;;;4.70;2.40;;;;;;;33.10;38.97;100734.63;5028656;28;20522;-66
2021/06/20 05:58:44;;;;;;;6.88;2.28;;;;;;;32.83;39.35;100723.97;5024622;28;20041;-66
2021/06/20 06:01:12;;;;;;;5.10;2.40;;;;;;;32.87;39.35;100718.28;5027320;28;20122;-63
2021/06/20 06:03:39;;;;;;;6.32;2.35;;;;;;;33.11;39.29;100730.03;5029563;28;20047;-64
2021/06/20 06:06:07;;;;;;;6.50;2.10;;;;;;;33.30;38.65;100727.59;5032727;28;20128;-63
2021/06/20 06:08:34;;;;;;;6.68;2.40;;;;;;;33.44;38.41;100734.72;5028171;28;20129;-63
2021/06/20 06:11:01;;;;;;;5.07;2.45;;;;;;;33.33;38.76;100730.13;5027385;28;20044;-64
2021/06/20 06:13:29;;;;;;;9.48;2.45;;;;;;;33.21;39.20;100723.72;5025788;28;20053;-63
2021/06/20 06:15:58;;;;;;;7.15;2.55;;;;;;;33.03;38.97;100725.16;5023137;28;20034;-64
2021/06/20 06:18:25;;;;;;;7.43;2.20;;;;;;;32.96;39.55;100725.75;5023146;28;20102;-64
2021/06/20 06:20:52;;;;;;;4.60;2.13;;;;;;;33.04;39.56;100734.22;5023580;28;20098;-63
2021/06/20 06:23:20;;;;;;;4.72;2.13;;;;;;;33.01;39.39;100731.75;5026948;28;20049;-64
2021/06/20 06:25:48;;;;;;;5.75;2.60;;;;;;;32.81;39.30;100728.72;5028731;28;20511;-64
2021/06/20 06:28:16;;;;;;;3.90;2.03;;;;;;;32.85;39.70;100734.81;5028524;28;20050;-64
2021/06/20 06:30:44;;;;;;;4.53;2.20;;;;;;;33.15;39.07;100735.13;5029636;28;20501;-63
2021/06/20 06:33:13;;;;;;;4.60;2.00;;;;;;;33.27;38.80;100732.47;5031923;28;20091;-64
2021/06/20 06:35:41;;;;;;;4.65;2.00;;;;;;;33.38;38.40;100727.00;5030660;28;20057;-64
2021/06/20 06:38:08;;;;;;;4.90;2.33;;;;;;;33.33;38.11;100726.50;5030093;28;20045;-63
2021/06/20 06:40:36;;;;;;;6.15;2.45;;;;;;;33.29;37.82;100731.31;5046513;28;20140;-64
2021/06/20 06:43:04;;;;;;;5.07;2.35;;;;;;;33.25;37.80;100729.84;5031080;28;20412;-64
2021/06/20 06:45:31;;;;;;;6.05;2.30;;;;;;;33.11;37.93;100722.69;5031953;28;20049;-61
2021/06/20 06:47:58;;;;;;;4.72;2.20;;;;;;;33.08;37.88;100722.91;5031750;28;20133;-63
2021/06/20 06:50:28;;;;;;;6.95;2.10;;;;;;;33.03;37.92;100727.00;5025458;28;20099;-63
2021/06/20 06:52:56;;;;;;;5.22;2.38;;;;;;;33.01;37.81;100732.63;5031926;28;20045;-64
2021/06/20 06:55:23;;;;;;;3.30;2.13;;;;;;;33.14;37.72;100729.78;5030382;28;20038;-63
2021/06/20 06:57:51;;;;;;;4.88;2.10;;;;;;;33.35;37.70;100730.84;5031110;28;20061;-63
2021/06/20 07:00:20;;;;;;;2.95;1.95;;;;;;;33.44;36.63;100721.91;5032174;28;20501;-63
2021/06/20 07:02:47;;;;;;;3.30;1.67;;;;;;;33.52;36.01;100734.97;5027949;28;20040;-64
2021/06/20 07:05:15;;;;;;;4.45;2.00;;;;;;;33.61;35.94;100726.88;5031081;28;20065;-63
2021/06/20 07:07:45;;;;;;;4.43;1.75;;;;;;;33.89;35.86;100728.25;5031686;28;20033;-64
2021/06/20 07:10:14;;;;;;;5.00;2.17;;;;;;;34.10;35.36;100727.50;5031802;28;20052;-63
2021/06/20 07:12:42;;;;;;;2.97;2.03;;;;;;;34.09;35.23;100728.47;5031408;28;20034;-64
2021/06/20 07:15:11;;;;;;;3.90;1.80;;;;;;;33.96;35.41;100731.38;5032366;28;20580;-65
2021/06/20 07:17:39;;;;;;;3.97;1.80;;;;;;;33.82;35.78;100726.16;5032199;28;20481;-64
2021/06/20 07:20:14;;;;;;;4.22;2.25;;;;;;;33.59;35.94;100731.63;5031087;28;20041;-64
2021/06/20 07:22:42;;;;;;;4.75;1.88;;;;;;;33.70;35.51;100730.72;5011918;28;20034;-64
2021/06/20 07:25:13;;;;;;;3.35;1.65;;;;;;;33.96;34.68;100732.25;5011982;28;20495;-64
2021/06/20 07:27:41;;;;;;;4.78;2.10;;;;;;;34.03;33.81;100729.88;5021578;28;20132;-64
2021/06/20 07:30:11;;;;;;;3.67;1.80;;;;;;;34.14;33.46;100731.69;5030484;28;20044;-64
2021/06/20 07:32:39;;;;;;;2.72;1.70;;;;;;;34.06;34.00;100732.38;5050040;28;20045;-64
2021/06/20 07:35:08;;;;;;;4.03;1.75;;;;;;;33.91;34.32;100737.25;5050809;28;20133;-64
2021/06/20 07:37:36;;;;;;;4.53;2.00;;;;;;;33.68;34.24;100727.25;5050445;28;20037;-64
2021/06/20 07:40:05;;;;;;;4.05;2.00;;;;;;;33.59;33.93;100733.47;5050105;28;20400;-64
2021/06/20 07:42:34;;;;;;;4.30;1.85;;;;;;;33.63;33.98;100735.84;5050646;28;20044;-63
2021/06/20 07:45:02;;;;;;;3.22;1.88;;;;;;;33.48;34.57;100731.59;5050563;28;20545;-64
2021/06/20 07:47:29;;;;;;;2.58;1.95;;;;;;;33.44;34.68;100735.59;5050499;28;20497;-64
2021/06/20 07:49:57;;;;;;;4.50;1.80;;;;;;;33.46;34.32;100730.88;5050731;28;20712;-64
2021/06/20 07:52:24;;;;;;;4.47;1.70;;;;;;;33.48;34.28;100730.72;5050242;28;20041;-64
2021/06/20 07:54:52;;;;;;;2.75;1.63;;;;;;;33.74;34.30;100737.72;5050798;28;20047;-64
2021/06/20 07:57:20;;;;;;;4.38;1.70;;;;;;;33.89;33.57;100736.47;5050664;28;20724;-64
2021/06/20 07:59:49;;;;;;;3.80;1.70;;;;;;;33.65;34.01;100732.97;5030778;28;20133;-64
2021/06/20 08:02:17;;;;;;;3.75;1.70;;;;;;;33.40;34.62;100733.22;5030746;28;20053;-63
2021/06/20 08:04:47;;;;;;;3.40;1.63;;;;;;;33.63;34.46;100734.97;5030768;28;20048;-64
2021/06/20 08:07:15;;;;;;;4.65;2.30;;;;;;;33.57;33.92;100733.59;5030289;28;20064;-64
2021/06/20 08:09:43;;;;;;;2.88;1.98;;;;;;;33.57;34.13;100730.00;5030922;28;20041;-64
2021/06/20 08:12:11;;;;;;;6.47;2.28;;;;;;;33.80;34.73;100736.38;5031580;28;20037;-63
2021/06/20 08:14:39;;;;;;;3.63;2.25;;;;;;;33.50;35.28;100732.34;5050330;28;20047;-64
2021/06/20 08:17:09;;;;;;;4.43;2.13;;;;;;;33.23;36.60;100740.03;5050537;28;20550;-64
2021/06/20 08:19:37;;;;;;;6.38;2.38;;;;;;;33.07;36.32;100736.75;5050679;28;20055;-64
2021/06/20 08:22:04;;;;;;;4.35;2.10;;;;;;;33.15;37.00;100737.00;5050334;28;20116;-64
2021/06/20 08:24:32;;;;;;;6.00;2.30;;;;;;;33.05;37.32;100733.25;5050027;28;20484;-64
2021/06/20 08:26:59;;;;;;;10.15;2.65;;;;;;;33.11;37.33;100733.63;5050506;28;20499;-64
2021/06/20 08:29:27;;;;;;;7.90;2.22;;;;;;;33.37;36.26;100736.19;5050149;28;20041;-64
2021/06/20 08:31:54;;;;;;;6.05;2.15;;;;;;;33.48;36.00;100727.97;5050254;28;20045;-63
2021/06/20 08:34:24;;;;;;;2.35;1.70;;;;;;;33.81;34.89;100733.50;5050388;28;20045;-64
2021/06/20 08:36:51;;;;;;;2.28;1.73;;;;;;;33.99;34.46;100726.53;5049839;28;20044;-64
2021/06/20 08:39:19;;;;;;;6.15;2.55;;;;;;;34.04;34.56;100728.88;5049753;28;20041;-64
2021/06/20 08:41:46;;;;;;;3.80;2.28;;;;;;;34.08;34.39;100724.88;5049590;28;20120;-64
2021/06/20 08:44:19;;;;;;;3.83;1.80;;;;;;;34.07;34.29;100733.25;5049577;28;20128;-63
2021/06/20 08:46:47;;;;;;;4.90;2.27;;;;;;;34.06;34.68;100732.38;5050126;28;20049;-63
2021/06/20 08:49:14;;;;;;;5.30;2.00;;;;;;;34.54;33.63;100735.59;5049581;28;20103;-64
2021/06/20 08:51:47;;;;;;;3.28;1.95;;;;;;;34.95;31.92;100728.47;5048590;28;20460;-63
2021/06/20 08:54:15;;;;;;;3.03;1.70;;;;;;;34.98;30.64;100726.34;5045873;28;20148;-63
2021/06/20 08:56:42;;;;;;;2.28;1.63;;;;;;;35.18;30.36;100727.34;5048364;28;20492;-64
2021/06/20 08:59:12;;;;;;;4.32;2.20;;;;;;;35.50;29.80;100730.00;5036897;28;20431;-63
2021/06/20 09:01:39;;;;;;;4.63;1.98;;;;;;;35.84;29.24;100720.47;5048674;28;20037;-63
2021/06/20 09:04:07;;;;;;;3.65;2.00;;;;;;;35.91;28.95;100716.16;5048565;28;20037;-63
2021/06/20 09:06:35;;;;;;;3.63;2.25;;;;;;;36.13;28.73;100725.19;5048792;28;20095;-64
2021/06/20 09:09:07;;;;;;;4.22;2.13;;;;;;;36.07;28.37;100721.13;5049026;28;20527;-63
2021/06/20 09:11:38;;;;;;;2.60;1.92;;;;;;;36.08;28.41;100722.88;5048053;28;20064;-66
2021/06/20 09:14:08;;;;;;;4.50;2.25;;;;;;;36.12;28.10;100718.81;5047180;28;20404;-63
2021/06/20 09:16:37;;;;;;;4.38;2.30;;;;;;;36.15;27.93;100726.81;5047339;28;20048;-64
2021/06/20 09:19:05;;;;;;;3.30;2.20;;;;;;;36.12;28.40;100723.47;5048165;28;20072;-63
2021/06/20 09:21:33;;;;;;;3.92;1.95;;;;;;;36.45;27.65;100722.25;5048977;28;20111;-64
2021/06/20 09:24:00;;;;;;;4.47;1.92;;;;;;;36.64;27.31;100727.75;5049359;28;20047;-63
2021/06/20 09:26:41;;;;;;;4.93;2.20;;;;;;;36.52;27.14;100721.53;5048305;28;20037;-64
2021/06/20 09:29:10;;;;;;;3.00;2.05;;;;;;;36.42;27.43;100714.28;5048460;28;20124;-64
2021/06/20 09:31:45;;;;;;;5.93;2.00;;;;;;;36.13;27.91;100715.06;5029072;28;20037;-64
2021/06/20 09:34:13;;;;;;;5.38;1.75;;;;;;;35.83;28.30;100712.41;5031886;28;20041;-64
2021/06/20 09:36:41;;;;;;;5.05;2.38;;;;;;;35.27;29.05;100714.69;5028454;28;20515;-63
2021/06/20 09:39:19;;;;;;;3.08;1.80;;;;;;;35.11;29.16;100715.16;5039847;28;20084;-63
2021/06/20 09:41:59;;;;;;;4.28;1.67;;;;;;;34.81;29.52;100715.06;5012325;28;20030;-63
2021/06/20 09:44:38;;;;;;;3.67;2.00;;;;;;;35.00;29.51;100713.34;5020948;28;20048;-64
2021/06/20 09:47:06;;;;;;;3.65;1.90;;;;;;;34.70;29.64;100716.84;5025321;28;20044;-64
2021/06/20 09:49:36;;;;;;;3.30;1.90;;;;;;;34.61;29.97;100717.63;5028835;28;20408;-64
2021/06/20 09:52:05;;;;;;;4.40;1.90;;;;;;;34.72;29.64;100725.81;5028913;28;20103;-63
2021/06/20 09:54:34;;;;;;;2.85;1.70;;;;;;;34.51;30.01;100722.16;5028952;28;20053;-63
2021/06/20 09:57:04;;;;;;;6.20;2.05;;;;;;;34.22;30.18;100721.00;5029131;28;20033;-63
2021/06/20 09:59:33;;;;;;;5.50;1.88;;;;;;;34.09;30.52;100728.47;5028700;28;20059;-63
2021/06/20 10:02:09;;;;;;;3.42;1.70;;;;;;;34.18;30.78;100717.63;5028620;28;20033;-63
2021/06/20 10:04:37;;;;;;;3.30;1.92;;;;;;;34.46;30.34;100724.44;5029531;28;20049;-63
2021/06/20 10:07:06;;;;;;;3.38;1.95;;;;;;;34.24;30.67;100721.75;5032885;28;20048;-63
2021/06/20 10:09:34;;;;;;;4.85;1.80;;;;;;;34.11;30.69;100723.75;5032964;28;20042;-63
2021/06/20 10:12:07;;;;;;;3.50;1.63;;;;;;;34.08;30.15;100718.50;5032709;28;20036;-63
2021/06/20 10:14:42;;;;;;;2.85;1.88;;;;;;;34.27;29.95;100718.75;5032897;28;20041;-63
2021/06/20 10:17:12;;;;;;;6.03;2.45;;;;;;;34.42;29.99;100716.59;5033108;28;20041;-63
2021/06/20 10:19:41;;;;;;;3.85;1.80;;;;;;;34.23;30.12;100717.28;5040585;28;20124;-64
2021/06/20 10:22:10;;;;;;;2.50;1.75;;;;;;;33.92;30.07;100716.19;5052441;28;20512;-63
2021/06/20 10:24:45;;;;;;;7.40;1.55;;;;;;;33.73;30.33;100707.75;5048770;28;20041;-64
2021/06/20 10:27:27;;;;;;;5.22;2.05;;;;;;;33.66;30.67;100698.25;5052086;28;20045;-64
2021/06/20 10:29:56;;;;;;;5.43;1.88;;;;;;;33.59;30.79;100696.03;5032686;28;20033;-64
2021/06/20 10:32:25;;;;;;;3.00;1.73;;;;;;;33.59;30.68;100693.28;5032503;28;20033;-63
2021/06/20 10:34:57;;;;;;;3.65;1.80;;;;;;;33.83;30.86;100689.53;5031889;28;20068;-63
2021/06/20 10:37:26;;;;;;;5.10;2.20;;;;;;;34.04;30.52;100681.41;5031925;28;20042;-64
2021/06/20 10:39:56;;;;;;;2.25;1.70;;;;;;;34.11;30.30;100690.84;5032227;28;20087;-64
2021/06/20 10:42:37;;;;;;;6.38;2.20;;;;;;;34.31;29.53;100681.84;5032075;28;20502;-64
2021/06/20 10:45:06;;;;;;;3.50;2.10;;;;;;;34.28;29.57;100682.09;5026917;28;20052;-63
2021/06/20 10:47:35;;;;;;;3.30;1.90;;;;;;;34.46;29.71;100687.91;5031371;28;20163;-64
2021/06/20 10:50:06;;;;;;;4.97;1.85;;;;;;;34.26;29.89;100679.50;5030131;28;20498;-64
2021/06/20 10:52:34;;;;;;;3.47;1.63;;;;;;;34.00;29.62;100680.81;5039123;28;20045;-64
2021/06/20 10:55:12;;;;;;;3.17;1.60;;;;;;;33.98;29.60;100682.78;5032094;28;20121;-64
2021/06/20 10:57:46;;;;;;;3.63;2.10;;;;;;;34.24;29.60;100680.63;5031431;28;20493;-64
2021/06/20 11:00:13;;;;;;;;;;;;;;;34.34;28.10;100684.31;5035000;28;20636;-63
2021/06/20 11:02:43;;;;;;;3.05;1.80;;;;;;;34.23;28.73;100673.41;5029710;28;19979;-63
2021/06/20 11:05:21;;;;;;;3.65;1.73;;;;;;;34.26;28.47;100674.03;5047928;28;20029;-64
2021/06/20 11:07:49;;;;;;;2.55;1.55;;;;;;;34.25;28.30;100675.03;5031481;28;20045;-64
2021/06/20 11:10:22;;;;;;;3.92;1.63;;;;;;;34.54;28.26;100677.13;5038175;28;20034;-64
2021/06/20 11:12:57;;;;;;;2.38;1.80;;;;;;;34.60;27.91;100676.59;5031584;28;20057;-63
2021/06/20 11:15:26;;;;;;;3.50;1.50;;;;;;;34.76;27.73;100677.94;5031742;28;20048;-63
2021/06/20 11:18:05;;;;;;;4.60;1.83;;;;;;;34.77;28.02;100670.56;5030692;28;20052;-63
2021/06/20 11:20:33;;;;;;;1.73;1.42;;;;;;;34.72;28.06;100661.88;5022743;28;20046;-63
2021/06/20 11:23:00;;;;;;;4.82;1.63;;;;;;;34.65;28.42;100666.13;5011871;28;20564;-64
2021/06/20 11:25:29;;;;;;;3.80;1.70;;;;;;;34.60;28.52;100661.00;5018157;28;20096;-64
2021/06/20 11:27:58;;;;;;;2.30;1.50;;;;;;;35.14;28.17;100659.97;5045652;28;20064;-64
2021/06/20 11:30:28;;;;;;;4.47;1.70;;;;;;;35.53;27.67;100667.41;5031387;28;20048;-64
2021/06/20 11:32:55;;;;;;;34.45;24.35;;;;;;;35.69;27.58;100671.53;5048458;28;20168;-64